GES weather

General Santos International Airport
General Santos, South Cotabato Province, Philippines

Public forecast

Using degrees Celsius for public forecast. Weather courtesy of forecast.io.

Current aviation weather report (METAR) for General Santos International Airport

Retrieved 2019/10/24 03:00 UTC (18 minutes ago):

RPMR 240300Z 08004KT 9999 SCT018TCU 34/21 Q1012 NOSIG RMK A2988 TCU W

Aviation forecast (TAF) for General Santos International Airport

Retrieved 2019-10-24 00:00 UTC (3 hours ago):

TAF RPMR 232300Z 2400/2424 14006KT 9999 FEW020 SCT080 BKN250 TEMPO 2400/2406 34008KT FEW018CB BKN080